createdAt,value
2017-10-22T00:01:15.577Z,71.20
2017-10-22T00:03:41.744Z,71.00
2017-10-22T00:06:07.945Z,71.30
2017-10-22T00:08:34.869Z,70.80
2017-10-22T00:11:01.064Z,70.70
2017-10-22T00:13:27.244Z,70.60
2017-10-22T00:15:53.457Z,70.60
2017-10-22T00:18:19.680Z,70.70
2017-10-22T00:20:45.877Z,70.70
2017-10-22T00:23:12.135Z,70.50
2017-10-22T00:25:38.353Z,70.70
2017-10-22T00:28:05.520Z,71.40
2017-10-22T00:30:31.796Z,70.60
2017-10-22T00:32:58.008Z,70.70
2017-10-22T00:35:24.244Z,71.10
2017-10-22T00:37:50.485Z,71.10
2017-10-22T00:40:16.701Z,71.70
2017-10-22T00:42:42.929Z,71.60
2017-10-22T00:45:09.221Z,71.80
2017-10-22T00:47:37.211Z,72.10
2017-10-22T00:50:03.415Z,72.10
2017-10-22T00:52:29.682Z,72.20
2017-10-22T00:54:56.613Z,72.50
2017-10-22T00:57:23.613Z,72.40
2017-10-22T00:59:49.864Z,72.50
2017-10-22T01:02:16.111Z,72.40
2017-10-22T01:04:42.345Z,72.40
2017-10-22T01:07:08.571Z,72.00
2017-10-22T01:09:34.838Z,72.00
2017-10-22T01:12:01.172Z,72.10
2017-10-22T01:14:27.380Z,72.20
2017-10-22T01:16:53.591Z,71.70
2017-10-22T01:19:19.782Z,71.80
2017-10-22T01:21:46.020Z,71.70
2017-10-22T01:24:12.247Z,71.60
2017-10-22T01:26:38.481Z,71.30
2017-10-22T01:29:04.730Z,71.30
2017-10-22T01:31:30.917Z,71.20
2017-10-22T01:33:57.127Z,71.00
2017-10-22T01:36:23.414Z,70.40
2017-10-22T01:38:49.607Z,70.50
2017-10-22T01:41:15.910Z,70.60
2017-10-22T01:43:42.212Z,70.00
2017-10-22T01:46:09.148Z,69.40
2017-10-22T01:48:35.468Z,69.30
2017-10-22T01:51:01.665Z,69.10
2017-10-22T01:53:29.592Z,68.60
2017-10-22T01:55:55.949Z,68.60
2017-10-22T01:58:22.176Z,68.60
2017-10-22T02:00:48.365Z,68.30
2017-10-22T02:03:14.640Z,68.30
2017-10-22T02:05:40.901Z,68.50
2017-10-22T02:08:07.126Z,68.30
2017-10-22T02:10:33.338Z,68.00
2017-10-22T02:12:59.576Z,68.20
2017-10-22T02:15:25.765Z,68.00
2017-10-22T02:17:51.962Z,67.70
2017-10-22T02:20:18.865Z,67.30
2017-10-22T02:22:45.089Z,67.20
2017-10-22T02:25:12.015Z,66.30
2017-10-22T02:27:38.959Z,67.10
2017-10-22T02:30:05.898Z,66.00
2017-10-22T02:32:32.092Z,66.00
2017-10-22T02:34:59.035Z,66.00
2017-10-22T02:37:25.980Z,65.40
2017-10-22T02:39:52.143Z,65.40
2017-10-22T02:42:18.344Z,65.10
2017-10-22T02:44:44.945Z,65.10
2017-10-22T02:47:11.482Z,65.30
2017-10-22T02:49:37.788Z,65.20
2017-10-22T02:52:04.100Z,65.30
2017-10-22T02:54:30.332Z,64.70
2017-10-22T02:56:56.488Z,64.20
2017-10-22T02:59:22.711Z,63.90
2017-10-22T03:01:48.904Z,64.20
2017-10-22T03:04:15.824Z,63.40
2017-10-22T03:06:42.002Z,63.30
2017-10-22T03:09:08.196Z,64.30
2017-10-22T03:11:34.472Z,63.40
2017-10-22T03:14:00.724Z,63.40
2017-10-22T03:16:26.910Z,63.40
2017-10-22T03:18:53.848Z,63.40
2017-10-22T03:21:20.789Z,63.40
2017-10-22T03:23:46.992Z,63.40
2017-10-22T03:26:13.155Z,63.30
2017-10-22T03:28:39.336Z,63.30
2017-10-22T03:31:05.533Z,63.30
2017-10-22T03:33:31.705Z,63.30
2017-10-22T03:35:57.885Z,64.10
2017-10-22T03:38:24.085Z,63.20
2017-10-22T03:40:50.264Z,62.70
2017-10-22T03:43:16.498Z,63.20
2017-10-22T03:45:42.699Z,63.10
2017-10-22T03:48:08.918Z,63.10
2017-10-22T03:50:35.072Z,62.90
2017-10-22T03:53:01.252Z,62.40
2017-10-22T03:55:27.413Z,62.70
2017-10-22T03:57:53.601Z,62.50
2017-10-22T04:00:19.867Z,62.40
2017-10-22T04:02:46.039Z,62.20
2017-10-22T04:05:12.229Z,62.00
2017-10-22T04:07:38.385Z,61.50
2017-10-22T04:10:04.558Z,62.00
2017-10-22T04:12:30.770Z,61.70
2017-10-22T04:14:57.704Z,61.40
2017-10-22T04:17:23.897Z,61.40
2017-10-22T04:19:50.126Z,61.30
2017-10-22T04:22:16.310Z,61.20
2017-10-22T04:24:42.529Z,61.00
2017-10-22T04:27:08.685Z,61.30
2017-10-22T04:29:34.878Z,61.50
2017-10-22T04:32:01.049Z,61.80
2017-10-22T04:34:27.976Z,62.30
2017-10-22T04:36:54.898Z,62.20
2017-10-22T04:39:21.934Z,62.30
2017-10-22T04:41:48.095Z,62.30
2017-10-22T04:44:14.294Z,62.00
2017-10-22T04:46:40.497Z,62.50
2017-10-22T04:49:06.700Z,62.50
2017-10-22T04:51:32.887Z,62.70
2017-10-22T04:53:59.062Z,62.70
2017-10-22T04:56:25.349Z,62.60
2017-10-22T04:58:51.535Z,62.70
2017-10-22T05:01:18.440Z,62.70
2017-10-22T05:03:44.629Z,62.70
2017-10-22T05:06:10.801Z,62.70
2017-10-22T05:08:37.046Z,63.40
2017-10-22T05:11:03.235Z,62.30
2017-10-22T05:13:29.432Z,62.60
2017-10-22T05:15:56.336Z,62.40
2017-10-22T05:18:22.496Z,62.40
2017-10-22T05:20:48.701Z,61.70
2017-10-22T05:23:14.860Z,62.60
2017-10-22T05:25:41.958Z,62.60
2017-10-22T05:28:08.247Z,62.60
2017-10-22T05:30:34.512Z,63.20
2017-10-22T05:33:00.709Z,62.00
2017-10-22T05:35:26.908Z,63.40
2017-10-22T05:37:53.151Z,62.10
2017-10-22T05:40:19.325Z,62.70
2017-10-22T05:42:45.487Z,62.70
2017-10-22T05:45:11.730Z,62.70
2017-10-22T05:47:38.228Z,62.70
2017-10-22T05:50:04.499Z,62.70
2017-10-22T05:52:30.747Z,62.70
2017-10-22T05:54:57.288Z,62.70
2017-10-22T05:57:23.460Z,62.70
2017-10-22T05:59:49.653Z,62.70
2017-10-22T06:02:15.856Z,63.60
2017-10-22T06:04:42.061Z,62.40
2017-10-22T06:07:09.052Z,62.20
2017-10-22T06:09:37.267Z,62.20
2017-10-22T06:12:03.469Z,62.90
2017-10-22T06:14:29.730Z,62.40
2017-10-22T06:16:55.907Z,62.80
2017-10-22T06:19:22.852Z,61.80
2017-10-22T06:21:49.093Z,61.80
2017-10-22T06:24:15.304Z,61.70
2017-10-22T06:26:41.556Z,60.90
2017-10-22T06:29:08.501Z,60.10
2017-10-22T06:31:36.737Z,60.10
2017-10-22T06:34:03.752Z,59.00
2017-10-22T06:36:30.474Z,59.00
2017-10-22T06:38:57.734Z,58.50
2017-10-22T06:41:23.989Z,58.20
2017-10-22T06:43:50.174Z,58.10
2017-10-22T06:46:17.239Z,57.30
2017-10-22T06:48:43.437Z,57.20
2017-10-22T06:51:10.066Z,57.20
2017-10-22T06:53:36.335Z,56.80
2017-10-22T06:56:02.660Z,56.60
2017-10-22T06:58:28.902Z,56.10
2017-10-22T07:00:55.228Z,54.90
2017-10-22T07:03:22.074Z,54.50
2017-10-22T07:05:48.290Z,54.80
2017-10-22T07:08:14.489Z,54.00
2017-10-22T07:10:40.746Z,53.50
2017-10-22T07:13:06.944Z,53.50
2017-10-22T07:15:33.216Z,53.60
2017-10-22T07:17:59.549Z,54.40
2017-10-22T07:20:25.850Z,53.60
2017-10-22T07:22:52.052Z,53.70
2017-10-22T07:25:19.412Z,53.00
2017-10-22T07:27:45.675Z,53.10
2017-10-22T07:30:11.857Z,53.20
2017-10-22T07:32:38.109Z,52.50
2017-10-22T07:35:04.528Z,53.20
2017-10-22T07:37:32.320Z,52.80
2017-10-22T07:39:58.566Z,52.80
2017-10-22T07:42:24.780Z,52.70
2017-10-22T07:44:51.021Z,52.00
2017-10-22T07:47:17.304Z,52.00
2017-10-22T07:49:43.525Z,52.10
2017-10-22T07:52:09.717Z,52.50
2017-10-22T07:54:35.939Z,52.10
2017-10-22T07:57:02.145Z,52.10
2017-10-22T07:59:29.133Z,51.40
2017-10-22T08:01:56.067Z,51.80
2017-10-22T08:04:23.096Z,51.40
2017-10-22T08:06:49.332Z,51.40
2017-10-22T08:09:15.503Z,51.80
2017-10-22T08:11:41.722Z,51.80
2017-10-22T08:14:08.671Z,51.70
2017-10-22T08:16:34.877Z,51.70
2017-10-22T08:19:01.045Z,51.20
2017-10-22T08:21:27.278Z,52.20
2017-10-22T08:23:54.222Z,51.90
2017-10-22T08:26:21.206Z,51.70
2017-10-22T08:28:48.332Z,51.60
2017-10-22T08:31:15.260Z,51.70
2017-10-22T08:33:41.486Z,51.40
2017-10-22T08:36:07.709Z,52.50
2017-10-22T08:38:33.956Z,50.90
2017-10-22T08:41:00.162Z,51.10
2017-10-22T08:43:26.439Z,50.60
2017-10-22T08:45:52.725Z,50.70
2017-10-22T08:48:18.995Z,51.00
2017-10-22T08:50:45.265Z,50.50
2017-10-22T08:53:11.517Z,50.20
2017-10-22T08:55:37.752Z,50.70
2017-10-22T08:58:03.965Z,50.10
2017-10-22T09:00:30.156Z,49.90
2017-10-22T09:02:56.772Z,50.50
2017-10-22T09:05:22.977Z,50.70
2017-10-22T09:07:49.212Z,49.90
2017-10-22T09:10:15.389Z,50.40
2017-10-22T09:12:41.671Z,51.10
2017-10-22T09:15:08.612Z,50.90
2017-10-22T09:17:34.837Z,50.80
2017-10-22T09:20:01.068Z,51.40
2017-10-22T09:22:27.293Z,51.30
2017-10-22T09:24:53.511Z,51.30
2017-10-22T09:27:19.731Z,51.20
2017-10-22T09:29:46.373Z,51.50
2017-10-22T09:32:12.607Z,51.40
2017-10-22T09:34:38.862Z,51.30
2017-10-22T09:37:05.177Z,51.30
2017-10-22T09:39:31.428Z,51.10
2017-10-22T09:41:57.933Z,51.50
2017-10-22T09:44:24.170Z,52.10
2017-10-22T09:46:51.101Z,51.70
2017-10-22T09:49:18.085Z,52.20
2017-10-22T09:51:44.315Z,52.20
2017-10-22T09:54:10.617Z,52.40
2017-10-22T09:56:36.953Z,52.20
2017-10-22T09:59:03.180Z,52.00
2017-10-22T10:01:29.404Z,52.70
2017-10-22T10:03:56.368Z,52.50
2017-10-22T10:06:22.558Z,52.50
2017-10-22T10:08:49.541Z,52.60
2017-10-22T10:11:15.730Z,52.60
2017-10-22T10:13:41.952Z,51.80
2017-10-22T10:16:09.301Z,52.00
2017-10-22T10:18:35.546Z,51.70
2017-10-22T10:21:01.758Z,51.50
2017-10-22T10:23:28.000Z,51.80
2017-10-22T10:25:54.298Z,51.40
2017-10-22T10:28:20.529Z,51.60
2017-10-22T10:30:46.728Z,52.00
2017-10-22T10:33:13.696Z,52.00
2017-10-22T10:35:39.919Z,52.00
2017-10-22T10:38:06.342Z,51.90
2017-10-22T10:40:32.540Z,50.90
2017-10-22T10:42:58.789Z,51.30
2017-10-22T10:45:24.981Z,51.50
2017-10-22T10:47:51.221Z,51.10
2017-10-22T10:50:17.440Z,51.20
2017-10-22T10:52:43.666Z,52.20
2017-10-22T10:55:10.637Z,55.20
2017-10-22T10:57:36.839Z,54.40
2017-10-22T11:00:03.099Z,55.50
2017-10-22T11:02:29.302Z,56.80
2017-10-22T11:04:55.567Z,54.50
2017-10-22T11:07:21.811Z,55.20
2017-10-22T11:09:48.236Z,55.00
2017-10-22T11:12:14.645Z,55.40
2017-10-22T11:14:40.883Z,54.50
2017-10-22T11:17:07.147Z,54.20
2017-10-22T11:19:33.345Z,54.20
2017-10-22T11:22:00.558Z,53.50
2017-10-22T11:24:26.820Z,53.50
2017-10-22T11:26:53.027Z,54.30
2017-10-22T11:29:19.255Z,54.20
2017-10-22T11:31:45.485Z,55.40
2017-10-22T11:34:11.733Z,54.90
2017-10-22T11:36:38.076Z,56.00
2017-10-22T11:39:04.388Z,56.60
2017-10-22T11:41:31.300Z,56.50
2017-10-22T11:43:57.497Z,56.50
2017-10-22T11:46:23.669Z,57.30
2017-10-22T11:48:49.961Z,57.10
2017-10-22T11:51:16.142Z,58.50
2017-10-22T11:53:42.345Z,58.70
2017-10-22T11:56:08.529Z,58.40
2017-10-22T11:58:34.757Z,58.70
2017-10-22T12:01:01.013Z,59.70
2017-10-22T12:03:27.985Z,61.10
2017-10-22T12:05:54.330Z,61.10
2017-10-22T12:08:20.558Z,61.90
2017-10-22T12:10:46.777Z,62.00
2017-10-22T12:13:13.057Z,62.50
2017-10-22T12:15:45.361Z,63.80
2017-10-22T12:18:12.325Z,63.50
2017-10-22T12:20:38.641Z,63.50
2017-10-22T12:23:05.010Z,61.90
2017-10-22T12:25:32.027Z,63.20
2017-10-22T12:27:58.329Z,63.40
2017-10-22T12:30:24.545Z,63.40
2017-10-22T12:32:50.830Z,64.20
2017-10-22T12:35:17.061Z,63.40
2017-10-22T12:37:43.301Z,63.40
2017-10-22T12:40:09.525Z,63.80
2017-10-22T12:42:35.729Z,63.30
2017-10-22T12:45:02.025Z,63.20
2017-10-22T12:47:28.286Z,65.00
2017-10-22T12:49:55.277Z,64.10
2017-10-22T12:52:21.594Z,64.10
2017-10-22T12:54:47.824Z,64.80
2017-10-22T12:57:14.112Z,65.80
2017-10-22T12:59:40.358Z,65.20
2017-10-22T13:02:06.584Z,66.20
2017-10-22T13:04:32.824Z,66.10
2017-10-22T13:06:59.085Z,67.60
2017-10-22T13:09:25.285Z,66.60
2017-10-22T13:11:51.474Z,67.50
2017-10-22T13:14:17.705Z,68.20
2017-10-22T13:16:43.978Z,66.90
2017-10-22T13:19:10.277Z,68.30
2017-10-22T13:21:36.538Z,68.60
2017-10-22T13:24:02.833Z,68.70
2017-10-22T13:26:29.074Z,69.20
2017-10-22T13:28:55.294Z,69.90
2017-10-22T13:31:21.499Z,70.50
2017-10-22T13:33:47.687Z,67.80
2017-10-22T13:36:14.770Z,68.60
2017-10-22T13:38:41.030Z,67.60
2017-10-22T13:41:07.382Z,67.30
2017-10-22T13:43:33.718Z,67.60
2017-10-22T13:45:59.938Z,67.10
2017-10-22T13:48:26.184Z,67.80
2017-10-22T13:50:53.267Z,67.90
2017-10-22T13:53:19.489Z,67.80
2017-10-22T13:55:45.780Z,68.30
2017-10-22T13:58:11.974Z,67.70
2017-10-22T14:00:38.258Z,66.90
2017-10-22T14:03:04.484Z,67.90
2017-10-22T14:05:30.731Z,68.40
2017-10-22T14:07:56.965Z,68.70
2017-10-22T14:10:24.068Z,69.10
2017-10-22T14:12:50.300Z,68.20
2017-10-22T14:15:16.536Z,68.30
2017-10-22T14:17:42.738Z,68.30
2017-10-22T14:20:09.903Z,67.50
2017-10-22T14:22:36.098Z,68.80
2017-10-22T14:25:02.330Z,68.60
2017-10-22T14:27:29.596Z,69.10
2017-10-22T14:30:00.209Z,68.90
2017-10-22T14:32:26.460Z,68.60
2017-10-22T14:34:53.059Z,68.40
2017-10-22T14:37:19.305Z,67.30
2017-10-22T14:39:46.782Z,67.90
2017-10-22T14:42:13.946Z,68.90
2017-10-22T14:44:40.265Z,68.90
2017-10-22T14:47:06.504Z,69.30
2017-10-22T14:49:32.726Z,69.00
2017-10-22T14:51:59.005Z,69.60
2017-10-22T14:54:25.263Z,69.10
2017-10-22T14:56:51.664Z,68.90
2017-10-22T14:59:17.904Z,69.10
2017-10-22T15:01:44.137Z,69.30
2017-10-22T15:04:11.082Z,69.20
2017-10-22T15:06:38.174Z,68.90
2017-10-22T15:09:04.401Z,68.90
2017-10-22T15:11:30.674Z,68.30
2017-10-22T15:13:56.905Z,67.70
2017-10-22T15:16:23.147Z,67.90
2017-10-22T15:18:49.414Z,68.00
2017-10-22T15:21:15.624Z,68.10
2017-10-22T15:23:41.822Z,67.50
2017-10-22T15:26:08.022Z,68.40
2017-10-22T15:28:34.989Z,68.10
2017-10-22T15:31:01.205Z,68.10
2017-10-22T15:33:27.862Z,67.80
2017-10-22T15:35:55.073Z,67.90
2017-10-22T15:38:21.319Z,68.00
2017-10-22T15:40:47.557Z,67.40
2017-10-22T15:43:13.817Z,66.90
2017-10-22T15:45:40.085Z,66.80
2017-10-22T15:48:06.334Z,67.80
2017-10-22T15:50:32.555Z,67.10
2017-10-22T15:52:58.802Z,67.10
2017-10-22T15:55:25.048Z,67.40
2017-10-22T15:57:51.263Z,67.10
2017-10-22T16:00:17.530Z,67.30
2017-10-22T16:02:43.793Z,67.40
2017-10-22T16:05:09.999Z,67.90
2017-10-22T16:07:37.497Z,67.10
2017-10-22T16:10:04.647Z,67.10
2017-10-22T16:12:31.979Z,66.90
2017-10-22T16:14:58.213Z,67.10
2017-10-22T16:17:24.516Z,67.50
2017-10-22T16:19:51.720Z,67.10
2017-10-22T16:22:17.964Z,67.10
2017-10-22T16:24:48.766Z,67.90
2017-10-22T16:27:16.046Z,67.20
2017-10-22T16:29:44.395Z,67.90
2017-10-22T16:32:11.425Z,66.90
2017-10-22T16:40:33.776Z,68.20
2017-10-22T16:43:01.956Z,68.70
2017-10-22T16:45:28.395Z,68.20
2017-10-22T16:47:58.132Z,68.90
2017-10-22T16:50:28.687Z,68.80
2017-10-22T16:52:55.045Z,69.10
2017-10-22T16:55:21.327Z,69.50
2017-10-22T16:57:48.962Z,69.40
2017-10-22T17:00:15.320Z,69.20
2017-10-22T17:02:42.500Z,68.60
2017-10-22T17:05:08.977Z,68.60
2017-10-22T17:07:35.478Z,69.40
2017-10-22T17:10:02.061Z,69.20
2017-10-22T17:12:28.763Z,69.30
2017-10-22T17:14:55.220Z,69.40
2017-10-22T17:17:21.998Z,69.30
2017-10-22T17:19:48.603Z,69.60
2017-10-22T17:22:15.108Z,68.30
2017-10-22T17:24:42.584Z,68.60
2017-10-22T17:27:09.089Z,68.60
2017-10-22T17:29:36.204Z,68.60
2017-10-22T17:32:02.732Z,68.50
2017-10-22T17:34:29.246Z,68.60
2017-10-22T17:36:55.634Z,68.40
2017-10-22T17:39:22.065Z,69.10
2017-10-22T17:41:48.480Z,68.00
2017-10-22T17:44:15.147Z,68.50
2017-10-22T17:46:41.627Z,68.30
2017-10-22T17:49:08.072Z,68.20
2017-10-22T17:51:35.279Z,68.20
2017-10-22T17:54:02.920Z,68.20
2017-10-22T17:56:29.334Z,68.50
2017-10-22T17:58:55.831Z,68.60
2017-10-22T18:01:22.262Z,68.20
2017-10-22T18:03:48.684Z,68.20
2017-10-22T18:06:15.168Z,68.10
2017-10-22T18:08:41.560Z,68.50
2017-10-22T18:11:08.155Z,67.90
2017-10-22T18:13:34.529Z,68.00
2017-10-22T18:16:00.905Z,67.80
2017-10-22T18:18:27.272Z,67.80
2017-10-22T18:20:53.696Z,67.60
2017-10-22T18:23:20.346Z,67.80
2017-10-22T18:25:48.774Z,68.00
2017-10-22T18:28:15.273Z,66.80
2017-10-22T18:30:41.842Z,67.00
2017-10-22T18:33:08.227Z,67.70
2017-10-22T18:35:34.658Z,67.30
2017-10-22T18:38:01.094Z,67.10
2017-10-22T18:40:27.659Z,67.10
2017-10-22T18:42:54.074Z,67.40
2017-10-22T18:45:20.488Z,67.00
2017-10-22T18:47:47.617Z,66.80
2017-10-22T18:50:14.163Z,66.80
2017-10-22T18:52:40.791Z,67.10
2017-10-22T18:55:07.166Z,67.10
2017-10-22T18:57:34.310Z,67.30
2017-10-22T19:00:00.787Z,67.40
2017-10-22T19:02:27.349Z,66.80
2017-10-22T19:04:54.599Z,66.80
2017-10-22T19:07:23.347Z,66.80
2017-10-22T19:09:49.836Z,67.20
2017-10-22T19:12:16.279Z,67.40
2017-10-22T19:14:42.745Z,66.80
2017-10-22T19:17:09.103Z,67.10
2017-10-22T19:19:35.472Z,66.20
2017-10-22T19:22:01.834Z,66.40
2017-10-22T19:24:28.291Z,66.80
2017-10-22T19:26:58.174Z,66.60
2017-10-22T19:29:24.480Z,66.90
2017-10-22T19:31:50.741Z,66.90
2017-10-22T19:34:17.854Z,66.10
2017-10-22T19:36:44.475Z,66.10
2017-10-22T19:39:10.910Z,65.90
2017-10-22T19:41:37.472Z,66.40
2017-10-22T19:44:03.969Z,66.20
2017-10-22T19:46:31.581Z,66.50
2017-10-22T19:48:57.964Z,66.80
2017-10-22T19:51:24.302Z,67.50
2017-10-22T19:53:50.709Z,66.70
2017-10-22T19:56:17.124Z,66.80
2017-10-22T19:58:43.495Z,65.70
2017-10-22T20:01:09.916Z,66.20
2017-10-22T20:03:36.562Z,65.80
2017-10-22T20:06:02.989Z,66.20
2017-10-22T20:08:29.471Z,66.60
2017-10-22T20:10:56.325Z,66.20
2017-10-22T20:15:54.511Z,66.40
2017-10-22T20:18:20.938Z,66.20
2017-10-22T20:20:47.470Z,66.80
2017-10-22T20:23:13.890Z,66.90
2017-10-22T20:25:58.318Z,66.80
2017-10-22T20:28:24.578Z,66.90
2017-10-22T20:30:50.817Z,66.50
2017-10-22T20:33:17.091Z,66.20
2017-10-22T20:35:43.344Z,66.60
2017-10-22T20:38:09.645Z,66.40
2017-10-22T20:40:35.882Z,67.20
2017-10-22T20:43:02.133Z,67.20
2017-10-22T20:45:28.366Z,66.40
2017-10-22T20:47:55.288Z,66.00
2017-10-22T20:50:22.290Z,66.10
2017-10-22T20:52:48.488Z,66.10
2017-10-22T20:55:14.741Z,65.50
2017-10-22T20:57:41.077Z,65.70
2017-10-22T21:00:07.305Z,66.30
2017-10-22T21:02:33.534Z,65.60
2017-10-22T21:04:59.802Z,65.70
2017-10-22T21:07:26.153Z,65.70
2017-10-22T21:09:52.453Z,65.30
2017-10-22T21:12:18.741Z,65.50
2017-10-22T21:14:44.917Z,65.00
2017-10-22T21:17:12.278Z,65.50
2017-10-22T21:19:38.472Z,65.80
2017-10-22T21:22:04.710Z,65.80
2017-10-22T21:24:30.902Z,65.40
2017-10-22T21:26:57.108Z,64.90
2017-10-22T21:29:23.288Z,65.20
2017-10-22T21:31:49.659Z,65.10
2017-10-22T21:34:15.989Z,65.20
2017-10-22T21:36:42.262Z,65.40
2017-10-22T21:39:08.519Z,65.40
2017-10-22T21:41:34.723Z,65.20
2017-10-22T21:44:01.038Z,64.80
2017-10-22T21:46:27.254Z,64.90
2017-10-22T21:48:53.450Z,65.20
2017-10-22T21:51:19.816Z,64.80
2017-10-22T21:53:46.068Z,64.50
2017-10-22T21:56:12.298Z,64.90
2017-10-22T21:58:38.506Z,65.00
2017-10-22T22:01:04.781Z,64.80
2017-10-22T22:03:30.971Z,64.10
2017-10-22T22:05:57.911Z,64.70
2017-10-22T22:08:24.126Z,64.70
2017-10-22T22:10:50.373Z,65.20
2017-10-22T22:13:16.705Z,65.00
2017-10-22T22:15:42.985Z,64.70
2017-10-22T22:18:09.233Z,65.30
2017-10-22T22:20:35.523Z,64.90
2017-10-22T22:23:01.749Z,64.30
2017-10-22T22:25:27.941Z,64.80
2017-10-22T22:27:54.141Z,65.00
2017-10-22T22:30:20.330Z,65.10
2017-10-22T22:32:46.544Z,64.40
2017-10-22T22:35:12.822Z,65.50
2017-10-22T22:37:39.051Z,65.30
2017-10-22T22:40:05.262Z,64.90
2017-10-22T22:42:31.521Z,64.80
2017-10-22T22:44:57.739Z,65.20
2017-10-22T22:47:24.204Z,64.70
2017-10-22T22:49:51.231Z,65.10
2017-10-22T22:52:17.645Z,64.90
2017-10-22T22:54:43.914Z,65.40
2017-10-22T22:57:10.309Z,65.10
2017-10-22T22:59:37.519Z,64.60
2017-10-22T23:02:03.781Z,65.20
2017-10-22T23:04:30.721Z,65.50
2017-10-22T23:06:56.936Z,65.50
2017-10-22T23:09:23.205Z,65.50
2017-10-22T23:11:49.424Z,65.10
2017-10-22T23:14:15.631Z,65.10
2017-10-22T23:16:41.861Z,65.40
2017-10-22T23:19:08.196Z,65.60
2017-10-22T23:21:34.461Z,65.60
2017-10-22T23:24:00.674Z,65.40
2017-10-22T23:26:26.917Z,65.40
2017-10-22T23:28:53.237Z,65.60
2017-10-22T23:31:19.853Z,65.70
2017-10-22T23:33:46.029Z,65.80
2017-10-22T23:36:12.285Z,65.10
2017-10-22T23:38:38.575Z,65.70
2017-10-22T23:41:04.766Z,65.40
2017-10-22T23:43:30.953Z,65.90
2017-10-22T23:45:57.245Z,66.00
2017-10-22T23:48:23.497Z,65.10
2017-10-22T23:50:49.777Z,66.00
2017-10-22T23:53:16.021Z,66.00
2017-10-22T23:55:42.986Z,65.90
2017-10-22T23:58:09.262Z,65.90
